Time;durP1;ratioP1;P1;durP2;ratioP2;P2;SDS_P1;SDS_P2;PMS_P1;PMS_P2;Temp;Humidity;BMP_temperature;BMP_pressure;BME280_temperature;BME280_humidity;BME280_pressure;Samples;Min_cycle;Max_cycle;Signal;HPM_P1;HPM_P2
2022/07/14 00:01:47;;;;;;;0.57;0.57;;;;;;;23.51;48.24;101449.88;5141880;28;20027;-84
2022/07/14 00:04:18;;;;;;;0.30;0.30;;;;;;;23.47;47.81;101428.78;5166722;28;20277;-85
2022/07/14 00:06:48;;;;;;;0.20;0.20;;;;;;;23.46;47.39;101430.59;5135453;28;20400;-84
2022/07/14 00:09:19;;;;;;;0.90;0.90;;;;;;;23.42;47.34;101439.84;5153475;28;20062;-85
2022/07/14 00:11:50;;;;;;;0.68;0.68;;;;;;;23.33;48.95;101456.53;5142900;28;20220;-85
2022/07/14 00:14:20;;;;;;;3.88;0.57;;;;;;;23.38;48.26;101449.03;5162709;28;20046;-84
2022/07/14 00:16:53;;;;;;;0.20;0.20;;;;;;;23.31;47.72;101453.94;5142062;28;20025;-87
2022/07/14 00:19:24;;;;;;;1.20;1.13;;;;;;;23.32;47.70;101455.66;5167353;28;20057;-86
2022/07/14 00:21:55;;;;;;;0.52;0.52;;;;;;;23.29;47.52;101433.59;5183440;28;20061;-85
2022/07/14 00:24:25;;;;;;;1.00;0.40;;;;;;;23.16;49.52;101450.50;5140359;28;20104;-84
2022/07/14 00:26:56;;;;;;;0.90;0.63;;;;;;;23.19;48.11;101446.78;5161657;28;20041;-86
2022/07/14 00:29:27;;;;;;;0.20;0.20;;;;;;;23.17;48.49;101438.84;5138993;28;20046;-85
2022/07/14 00:32:02;;;;;;;1.92;0.82;;;;;;;23.13;47.63;101429.28;5149843;28;20027;-86
2022/07/14 00:34:33;;;;;;;0.90;0.90;;;;;;;23.03;48.72;101433.56;5144840;28;20030;-86
2022/07/14 00:37:03;;;;;;;2.95;1.13;;;;;;;23.06;48.80;101446.72;5143772;28;20061;-86
2022/07/14 00:42:36;;;;;;;0.52;0.52;;;;;;;22.94;49.01;101451.94;5152643;28;20046;-85
2022/07/14 00:45:12;;;;;;;1.10;0.90;;;;;;;22.90;48.78;101429.06;5184659;28;20050;-85
2022/07/14 00:47:55;;;;;;;0.82;0.82;;;;;;;22.87;49.27;101420.38;5160163;28;20038;-85
2022/07/14 00:50:25;;;;;;;0.40;0.40;;;;;;;22.83;49.04;101430.44;5199243;28;20084;-83
2022/07/14 00:52:57;;;;;;;0.35;0.35;;;;;;;22.79;49.56;101437.81;5183930;28;20110;-86
2022/07/14 00:55:28;;;;;;;0.43;0.40;;;;;;;22.77;49.17;101429.03;5165424;28;20035;-83
2022/07/14 00:57:58;;;;;;;0.38;0.38;;;;;;;22.75;49.81;101428.28;5168116;28;20507;-85
2022/07/14 01:00:30;;;;;;;0.50;0.50;;;;;;;22.70;49.25;101418.84;5165447;28;20042;-85
2022/07/14 01:03:02;;;;;;;2.15;1.63;;;;;;;22.66;48.74;101415.50;5173517;28;20054;-84
2022/07/14 01:05:32;;;;;;;2.63;0.63;;;;;;;22.62;49.55;101422.03;5166544;28;20113;-84
2022/07/14 01:08:03;;;;;;;1.27;1.15;;;;;;;22.61;48.69;101428.34;5166414;28;20053;-85
2022/07/14 01:10:34;;;;;;;1.70;1.58;;;;;;;22.58;48.61;101428.53;5126963;28;20046;-83
2022/07/14 01:13:06;;;;;;;1.13;1.08;;;;;;;22.60;49.78;101426.63;5150706;28;20042;-85
2022/07/14 01:15:36;;;;;;;0.20;0.20;;;;;;;22.51;49.53;101425.44;5184487;28;20106;-84
2022/07/14 01:18:07;;;;;;;0.30;0.30;;;;;;;22.48;49.53;101418.47;5179460;28;20035;-84
2022/07/14 01:20:37;;;;;;;0.77;0.40;;;;;;;22.47;50.09;101415.91;5154239;28;20105;-85
2022/07/14 01:23:08;;;;;;;0.57;0.57;;;;;;;22.42;49.60;101412.69;5174541;28;20064;-84
2022/07/14 01:25:39;;;;;;;0.68;0.68;;;;;;;22.41;49.59;101406.47;5162476;28;20041;-84
2022/07/14 01:28:09;;;;;;;0.20;0.20;;;;;;;22.37;49.42;101409.41;5135909;28;20118;-85
2022/07/14 01:30:43;;;;;;;1.35;0.60;;;;;;;22.39;49.74;101434.22;5134559;28;20403;-85
2022/07/14 01:33:13;;;;;;;0.98;0.98;;;;;;;22.40;50.34;101447.53;5170977;28;20042;-84
2022/07/14 01:35:47;;;;;;;0.47;0.47;;;;;;;22.31;50.64;101446.28;5161998;28;20038;-86
2022/07/14 01:38:17;;;;;;;0.30;0.30;;;;;;;22.26;50.49;101434.19;5162367;28;20506;-83
2022/07/14 01:40:48;;;;;;;1.10;0.82;;;;;;;22.23;51.12;101437.91;5161192;28;20035;-85
2022/07/14 01:43:18;;;;;;;0.30;0.30;;;;;;;22.20;50.14;101456.81;5160096;28;20046;-85
2022/07/14 01:45:49;;;;;;;0.43;0.43;;;;;;;22.19;50.16;101455.09;5134927;28;20102;-84
2022/07/14 01:48:20;;;;;;;0.68;0.68;;;;;;;22.14;50.48;101447.41;5184115;28;20050;-85
2022/07/14 01:50:53;;;;;;;0.40;0.40;;;;;;;22.15;50.07;101446.41;5173812;28;20031;-86
2022/07/14 01:53:23;;;;;;;0.80;0.80;;;;;;;22.14;51.49;101443.84;5167274;28;20399;-84
2022/07/14 01:55:54;;;;;;;0.30;0.30;;;;;;;22.08;50.83;101445.09;5168867;28;20118;-85
2022/07/14 01:58:24;;;;;;;3.20;1.15;;;;;;;22.06;50.64;101440.81;5184067;28;20038;-85
2022/07/14 02:04:02;;;;;;;2.67;0.98;;;;;;;21.99;50.96;101427.84;5105525;29;20043;-85
2022/07/14 02:06:33;;;;;;;0.30;0.30;;;;;;;21.93;50.97;101428.25;5126880;28;20050;-86
2022/07/14 02:09:06;;;;;;;0.35;0.35;;;;;;;21.99;51.78;101413.63;5190412;28;20014;-86
2022/07/14 02:14:28;;;;;;;0.20;0.20;;;;;;;21.86;50.75;101397.53;5199881;28;20042;-86
2022/07/14 02:17:00;;;;;;;0.38;0.38;;;;;;;21.82;50.87;101396.03;5165860;28;20030;-85
2022/07/14 02:19:31;;;;;;;0.30;0.30;;;;;;;21.84;50.73;101402.13;5152958;28;20108;-84
2022/07/14 02:22:04;;;;;;;0.50;0.50;;;;;;;21.82;51.77;101404.88;5183570;28;20223;-86
2022/07/14 02:24:35;;;;;;;0.20;0.20;;;;;;;21.78;51.01;101397.16;5149490;28;20038;-84
2022/07/14 02:27:06;;;;;;;0.60;0.60;;;;;;;21.74;51.66;101401.84;5184468;28;20030;-85
2022/07/14 02:29:36;;;;;;;0.20;0.20;;;;;;;21.73;51.92;101399.28;5197972;28;20059;-85
2022/07/14 02:32:07;;;;;;;1.20;1.10;;;;;;;21.67;52.16;101400.53;5181295;28;20064;-84
2022/07/14 02:34:37;;;;;;;2.33;1.25;;;;;;;21.65;51.82;101403.28;5158026;28;20042;-85
2022/07/14 02:37:08;;;;;;;1.63;0.60;;;;;;;21.65;51.92;101403.28;5166482;28;20395;-83
2022/07/14 02:39:39;;;;;;;0.30;0.30;;;;;;;21.61;51.53;101400.91;5176128;28;20074;-84
2022/07/14 02:42:10;;;;;;;1.55;1.17;;;;;;;21.54;51.59;101400.41;5173494;28;20280;-83
2022/07/14 02:44:40;;;;;;;0.50;0.50;;;;;;;21.52;51.64;101413.84;5156127;28;20667;-84
2022/07/14 02:47:11;;;;;;;0.40;0.40;;;;;;;21.52;51.54;101413.00;5189382;28;20037;-83
2022/07/14 02:49:41;;;;;;;1.65;0.52;;;;;;;21.46;51.41;101408.91;5173234;28;20085;-83
2022/07/14 02:52:12;;;;;;;7.47;1.55;;;;;;;21.43;51.60;101411.75;5173236;28;20038;-85
2022/07/14 02:54:43;;;;;;;1.10;1.10;;;;;;;21.43;51.58;101413.59;5157820;28;21521;-84
2022/07/14 02:57:16;;;;;;;0.73;0.73;;;;;;;21.40;51.46;101409.28;5185268;28;20065;-84
2022/07/14 02:59:50;;;;;;;2.13;0.57;;;;;;;21.41;51.39;101402.13;5141781;28;20050;-84
2022/07/14 03:02:23;;;;;;;1.23;1.10;;;;;;;21.39;52.11;101407.56;5154522;28;20037;-83
2022/07/14 03:04:56;;;;;;;0.95;0.75;;;;;;;21.30;52.19;101419.66;5191334;28;20042;-83
2022/07/14 03:07:27;;;;;;;17.27;2.42;;;;;;;21.33;52.22;101411.47;5183959;28;20029;-83
2022/07/14 03:09:57;;;;;;;2.35;2.15;;;;;;;21.30;52.26;101406.31;5173901;28;20030;-84
2022/07/14 03:12:28;;;;;;;0.90;0.90;;;;;;;21.26;52.21;101402.13;5139927;28;20022;-83
2022/07/14 03:14:58;;;;;;;0.77;0.77;;;;;;;21.25;51.70;101392.41;5182411;28;20054;-84
2022/07/14 03:17:32;;;;;;;1.70;0.95;;;;;;;21.20;51.97;101408.69;5173174;28;20098;-85
2022/07/14 03:20:03;;;;;;;1.38;0.50;;;;;;;21.18;52.15;101393.75;5180233;28;20058;-85
2022/07/14 03:22:34;;;;;;;0.20;0.20;;;;;;;21.10;53.39;101390.69;5193063;28;20034;-82
2022/07/14 03:25:05;;;;;;;6.93;1.05;;;;;;;21.17;53.16;101408.03;5178759;28;20049;-85
2022/07/14 03:27:38;;;;;;;0.20;0.20;;;;;;;21.15;52.61;101410.81;5174185;28;20053;-84
2022/07/14 03:30:09;;;;;;;0.52;0.52;;;;;;;21.14;52.87;101393.06;5181370;28;20038;-83
2022/07/14 03:32:40;;;;;;;0.20;0.20;;;;;;;21.07;52.02;101389.91;5134667;28;20085;-82
2022/07/14 03:35:10;;;;;;;0.50;0.50;;;;;;;21.05;52.33;101382.97;5154244;28;20517;-83
2022/07/14 03:37:43;;;;;;;0.38;0.38;;;;;;;21.02;52.75;101389.34;5170016;28;20775;-83
2022/07/14 03:40:14;;;;;;;0.30;0.30;;;;;;;21.00;52.21;101385.91;5153836;28;20087;-85
2022/07/14 03:42:45;;;;;;;0.40;0.40;;;;;;;20.98;52.40;101381.63;5136687;28;20034;-85
2022/07/14 03:45:16;;;;;;;0.98;0.93;;;;;;;20.95;52.17;101392.47;5172422;28;20038;-85
2022/07/14 03:47:47;;;;;;;1.55;1.17;;;;;;;20.94;52.56;101396.97;5205908;28;20093;-85
2022/07/14 03:50:18;;;;;;;0.75;0.73;;;;;;;20.92;52.30;101378.34;5151945;28;20043;-85
2022/07/14 03:52:54;;;;;;;1.25;1.13;;;;;;;20.94;52.92;101390.75;5186288;28;20569;-84
2022/07/14 03:55:24;;;;;;;0.47;0.47;;;;;;;20.86;52.67;101396.56;5188132;28;20057;-87
2022/07/14 03:57:59;;;;;;;0.70;0.70;;;;;;;20.82;53.93;101390.56;5161146;28;20040;-85
2022/07/14 04:00:30;;;;;;;1.90;1.08;;;;;;;20.79;53.34;101390.72;5147093;28;20038;-85
2022/07/14 04:03:00;;;;;;;0.50;0.50;;;;;;;20.78;53.17;101386.34;5159749;28;20038;-84
2022/07/14 04:05:34;;;;;;;0.20;0.20;;;;;;;20.78;52.73;101398.81;5175818;28;20053;-87
2022/07/14 04:08:04;;;;;;;0.25;0.25;;;;;;;20.73;52.37;101383.94;5179690;28;20041;-84
2022/07/14 04:10:35;;;;;;;0.40;0.40;;;;;;;20.71;52.69;101388.47;5195429;28;20065;-84
2022/07/14 04:13:05;;;;;;;0.47;0.47;;;;;;;20.69;52.70;101379.72;5177858;28;20348;-83
2022/07/14 04:15:39;;;;;;;1.35;0.85;;;;;;;20.67;52.86;101383.41;5163557;28;20038;-84
2022/07/14 04:18:09;;;;;;;1.20;1.05;;;;;;;20.67;53.11;101386.94;5171688;28;20133;-84
2022/07/14 04:20:47;;;;;;;0.88;0.88;;;;;;;20.64;53.24;101389.78;5152486;28;20598;-85
2022/07/14 04:23:21;;;;;;;0.35;0.35;;;;;;;20.67;54.52;101402.94;5135161;28;20049;-86
2022/07/14 04:25:54;;;;;;;5.22;2.40;;;;;;;20.62;54.52;101396.16;5156810;28;20030;-84
2022/07/14 04:28:26;;;;;;;0.85;0.85;;;;;;;20.62;53.57;101413.00;5145174;28;20130;-84
2022/07/14 04:31:02;;;;;;;0.50;0.50;;;;;;;20.61;55.15;101411.31;5132728;28;20022;-86
2022/07/14 04:33:33;;;;;;;;;;;;;;;20.57;54.77;101410.63;5144097;28;20030;-85
2022/07/14 04:36:04;;;;;;;0.98;0.93;;;;;;;20.51;53.90;101399.47;5142887;28;19914;-86
2022/07/14 04:38:34;;;;;;;13.85;2.72;;;;;;;20.50;53.98;101395.06;5141859;28;20041;-85
2022/07/14 04:41:07;;;;;;;5.10;4.70;;;;;;;20.48;54.66;101394.31;5146254;28;20113;-85
2022/07/14 04:43:41;;;;;;;6.20;5.30;;;;;;;20.50;55.24;101403.91;5141514;28;20510;-85
2022/07/14 04:46:11;;;;;;;2.08;1.08;;;;;;;20.44;53.86;101410.50;5157841;28;20109;-82
2022/07/14 04:54:24;;;;;;;0.80;0.68;;;;;;;20.32;55.13;101405.84;5146776;28;20122;-85
2022/07/14 04:56:54;;;;;;;0.63;0.63;;;;;;;20.34;54.67;101409.28;5160636;28;20410;-85
2022/07/14 04:59:25;;;;;;;0.68;0.68;;;;;;;20.32;54.66;101407.66;5159033;28;20038;-85
2022/07/14 05:01:57;;;;;;;3.03;1.30;;;;;;;20.29;55.33;101404.22;5141665;28;20251;-84
2022/07/14 05:04:28;;;;;;;1.25;0.68;;;;;;;20.28;54.49;101407.00;5145654;28;20093;-85
2022/07/14 05:06:59;;;;;;;0.40;0.40;;;;;;;20.26;54.72;101399.06;5144428;28;20252;-84
2022/07/14 05:09:32;;;;;;;0.30;0.30;;;;;;;20.24;54.53;101397.44;5158687;28;20038;-85
2022/07/14 05:12:03;;;;;;;0.30;0.30;;;;;;;20.23;55.46;101401.94;5126525;28;20030;-84
2022/07/14 05:14:34;;;;;;;0.50;0.50;;;;;;;20.23;54.14;101393.94;5128570;28;20087;-85
2022/07/14 05:17:04;;;;;;;0.95;0.95;;;;;;;20.20;54.33;101395.91;5158151;28;20737;-85
2022/07/14 05:19:35;;;;;;;0.88;0.88;;;;;;;20.19;54.44;101402.19;5132158;28;20038;-85
2022/07/14 05:22:06;;;;;;;0.57;0.57;;;;;;;20.18;54.99;101392.47;5178631;28;20449;-84
2022/07/14 05:24:37;;;;;;;2.28;1.85;;;;;;;20.19;54.85;101395.03;5174192;28;20068;-84
2022/07/14 05:27:10;;;;;;;1.35;0.75;;;;;;;20.19;55.06;101399.50;5160634;28;20490;-84
2022/07/14 05:29:41;;;;;;;1.65;0.73;;;;;;;20.12;55.55;101394.50;5160117;28;20034;-85
2022/07/14 05:32:12;;;;;;;0.70;0.70;;;;;;;20.24;55.45;101400.97;5125925;28;20033;-84
2022/07/14 05:34:44;;;;;;;1.20;1.10;;;;;;;20.22;54.89;101388.66;5139757;28;20090;-84
2022/07/14 05:37:15;;;;;;;1.02;0.93;;;;;;;20.23;55.27;101395.72;5166354;28;20034;-85
2022/07/14 05:39:45;;;;;;;0.63;0.63;;;;;;;20.22;55.29;101399.31;5168458;28;20041;-86
2022/07/14 05:42:19;;;;;;;5.57;0.40;;;;;;;20.25;54.68;101409.81;5159854;28;20058;-85
2022/07/14 05:44:50;;;;;;;1.73;1.50;;;;;;;20.27;55.32;101402.59;5170706;28;20038;-86
2022/07/14 05:47:21;;;;;;;0.60;0.60;;;;;;;20.23;54.93;101404.59;5174544;28;20040;-85
2022/07/14 05:49:51;;;;;;;2.75;1.98;;;;;;;20.26;54.88;101411.53;5170655;28;20034;-85
2022/07/14 05:52:22;;;;;;;2.20;0.70;;;;;;;20.29;55.59;101411.34;5155701;28;20053;-85
2022/07/14 05:54:53;;;;;;;0.77;0.77;;;;;;;20.32;55.82;101421.84;5142828;28;20062;-85
2022/07/14 05:57:23;;;;;;;0.82;0.82;;;;;;;20.34;55.33;101419.06;5177877;28;20049;-85
2022/07/14 05:59:54;;;;;;;0.90;0.90;;;;;;;20.34;55.32;101419.06;5146714;28;20098;-86
2022/07/14 06:02:24;;;;;;;0.55;0.55;;;;;;;20.31;55.20;101412.13;5178625;28;20048;-85
2022/07/14 06:04:55;;;;;;;3.78;1.52;;;;;;;20.33;55.32;101410.25;5147146;28;20081;-86
2022/07/14 06:07:25;;;;;;;1.95;1.20;;;;;;;20.35;55.19;101411.00;5163799;28;20580;-85
2022/07/14 06:09:58;;;;;;;17.00;1.75;;;;;;;20.38;54.91;101405.50;5124898;28;20057;-85
2022/07/14 06:12:28;;;;;;;0.60;0.60;;;;;;;20.36;55.27;101418.06;5155143;28;20420;-85
2022/07/14 06:14:59;;;;;;;0.32;0.32;;;;;;;20.39;55.54;101414.34;5155635;28;20053;-85
2022/07/14 06:17:30;;;;;;;0.60;0.60;;;;;;;20.41;55.12;101415.97;5144962;28;20123;-85
2022/07/14 06:20:06;;;;;;;2.53;1.17;;;;;;;20.40;55.80;101410.75;5187000;28;20042;-85
2022/07/14 06:22:38;;;;;;;1.42;1.33;;;;;;;20.39;55.88;101415.22;5154860;28;20042;-86
2022/07/14 06:25:09;;;;;;;0.45;0.45;;;;;;;20.47;55.37;101413.91;5172848;28;20562;-86
2022/07/14 06:27:40;;;;;;;3.67;1.98;;;;;;;20.42;56.05;101415.03;5156908;28;20308;-86
2022/07/14 06:30:11;;;;;;;1.05;1.05;;;;;;;20.50;55.39;101427.06;5174499;28;20133;-86
2022/07/14 06:32:42;;;;;;;1.85;1.05;;;;;;;20.49;55.02;101428.00;5164457;28;20109;-85
2022/07/14 06:35:12;;;;;;;1.65;1.35;;;;;;;20.54;55.90;101429.47;5144838;28;20122;-86
2022/07/14 06:37:43;;;;;;;0.40;0.40;;;;;;;20.53;55.19;101425.06;5142479;28;20034;-86
2022/07/14 06:40:14;;;;;;;0.60;0.60;;;;;;;20.55;55.76;101420.53;5161804;28;20045;-86
2022/07/14 06:42:45;;;;;;;10.55;0.80;;;;;;;20.57;55.98;101420.44;5155748;28;20647;-86
2022/07/14 06:45:15;;;;;;;0.47;0.47;;;;;;;20.56;55.60;101419.56;5145420;28;20018;-85
2022/07/14 06:47:49;;;;;;;8.38;2.47;;;;;;;20.67;55.93;101420.72;5158168;28;20397;-86
2022/07/14 06:50:20;;;;;;;1.20;1.17;;;;;;;20.61;56.41;101421.97;5136431;28;20047;-85
2022/07/14 06:52:51;;;;;;;2.33;0.98;;;;;;;20.67;55.48;101424.28;5159051;28;20057;-86
2022/07/14 06:55:22;;;;;;;0.52;0.52;;;;;;;20.63;56.03;101417.38;5127212;28;20038;-86
2022/07/14 06:57:52;;;;;;;0.20;0.20;;;;;;;20.72;56.29;101430.19;5126038;28;20046;-86
2022/07/14 07:00:23;;;;;;;0.73;0.73;;;;;;;20.75;56.31;101419.38;5147083;28;20108;-85
2022/07/14 07:02:57;;;;;;;0.98;0.98;;;;;;;20.78;56.61;101407.66;5141833;28;20062;-85
2022/07/14 07:08:17;;;;;;;2.05;1.67;;;;;;;20.79;55.73;101413.84;5164902;28;20066;-84
2022/07/14 07:10:49;;;;;;;0.47;0.47;;;;;;;20.74;55.81;101415.00;5140520;28;20050;-84
2022/07/14 07:13:24;;;;;;;0.55;0.55;;;;;;;20.82;55.82;101413.69;5143136;28;20046;-84
2022/07/14 07:15:55;;;;;;;1.00;0.93;;;;;;;20.87;56.33;101412.47;5133624;28;20765;-85
2022/07/14 07:18:26;;;;;;;5.70;0.90;;;;;;;20.96;56.01;101407.53;5136284;28;20098;-84
2022/07/14 07:20:57;;;;;;;5.18;1.75;;;;;;;20.93;56.19;101400.56;5179213;28;20022;-86
2022/07/14 07:23:27;;;;;;;0.82;0.82;;;;;;;20.91;55.60;101405.13;5152613;28;20093;-84
2022/07/14 07:25:58;;;;;;;0.57;0.57;;;;;;;20.97;55.49;101404.75;5133277;28;20121;-85
2022/07/14 07:28:29;;;;;;;1.73;1.48;;;;;;;21.04;55.55;101402.59;5160498;28;20046;-86
2022/07/14 07:31:02;;;;;;;0.77;0.77;;;;;;;21.03;55.04;101399.03;5133858;28;20022;-86
2022/07/14 07:33:33;;;;;;;1.10;1.00;;;;;;;21.04;54.97;101403.44;5121118;28;20134;-86
2022/07/14 07:36:04;;;;;;;0.68;0.68;;;;;;;21.07;55.33;101407.75;5158725;28;20125;-86
2022/07/14 07:38:35;;;;;;;1.80;1.70;;;;;;;21.08;54.91;101398.75;5155436;28;20035;-85
2022/07/14 07:41:05;;;;;;;2.78;2.13;;;;;;;21.04;55.97;101406.09;5149807;28;20023;-85
2022/07/14 07:43:38;;;;;;;2.78;1.65;;;;;;;21.04;55.62;101408.75;5131514;28;21122;-85
2022/07/14 07:46:09;;;;;;;2.65;1.63;;;;;;;21.11;55.59;101405.75;5131415;28;20070;-85
2022/07/14 07:48:40;;;;;;;0.20;0.20;;;;;;;21.08;55.17;101409.44;5145288;28;20050;-84
2022/07/14 07:51:17;;;;;;;0.40;0.40;;;;;;;21.11;55.24;101408.41;5137483;28;20030;-85
2022/07/14 07:53:51;;;;;;;0.55;0.55;;;;;;;21.16;55.03;101400.97;5128680;28;20041;-85
2022/07/14 07:56:21;;;;;;;0.88;0.88;;;;;;;21.16;55.27;101401.81;5142339;28;20026;-85
2022/07/14 07:58:52;;;;;;;0.68;0.68;;;;;;;21.12;55.43;101404.78;5154428;28;20125;-85
2022/07/14 08:01:23;;;;;;;3.08;1.05;;;;;;;21.14;54.99;101408.22;5131793;28;20045;-86
2022/07/14 08:03:53;;;;;;;1.48;1.38;;;;;;;21.13;54.56;101391.34;5149858;28;20502;-85
2022/07/14 08:06:24;;;;;;;1.17;0.82;;;;;;;21.21;54.50;101391.75;5133905;28;20053;-85
2022/07/14 08:08:54;;;;;;;1.38;1.17;;;;;;;21.25;53.74;101395.06;5157337;28;20423;-86
2022/07/14 08:11:25;;;;;;;0.50;0.50;;;;;;;21.16;53.54;101379.63;5148059;28;20031;-84
2022/07/14 08:13:56;;;;;;;2.83;1.10;;;;;;;21.16;53.49;101371.63;5152640;28;20104;-86
2022/07/14 08:16:26;;;;;;;7.63;1.38;;;;;;;21.13;53.02;101375.34;5140609;28;20041;-86
2022/07/14 08:18:57;;;;;;;0.70;0.70;;;;;;;21.14;52.81;101370.84;5129512;28;20085;-86
2022/07/14 08:21:28;;;;;;;0.20;0.20;;;;;;;21.23;52.69;101373.84;5135158;28;20046;-86
2022/07/14 08:23:59;;;;;;;0.88;0.70;;;;;;;21.21;52.85;101374.84;5155261;28;20559;-86
2022/07/14 08:26:29;;;;;;;1.00;0.55;;;;;;;21.28;52.25;101378.84;5124309;28;20034;-85
2022/07/14 08:29:00;;;;;;;1.30;1.05;;;;;;;21.28;51.24;101373.53;5142843;28;20030;-85
2022/07/14 08:31:31;;;;;;;1.13;1.08;;;;;;;21.21;51.65;101366.84;5124449;28;20101;-87
2022/07/14 08:34:04;;;;;;;3.00;0.60;;;;;;;21.26;51.75;101361.22;5125802;28;20039;-86
2022/07/14 08:36:35;;;;;;;4.45;1.50;;;;;;;21.21;49.99;101358.84;5151862;28;20564;-86
2022/07/14 08:39:05;;;;;;;0.80;0.80;;;;;;;21.16;49.72;101355.63;5133258;28;20034;-86
2022/07/14 08:41:37;;;;;;;0.60;0.60;;;;;;;21.22;49.78;101360.56;5143514;28;20134;-86
2022/07/14 08:44:09;;;;;;;2.25;0.95;;;;;;;21.23;50.88;101343.59;5161670;28;20073;-86
2022/07/14 08:46:39;;;;;;;1.00;0.77;;;;;;;21.28;50.69;101343.31;5134935;28;20030;-86
2022/07/14 08:49:14;;;;;;;0.93;0.75;;;;;;;21.34;49.55;101346.47;5145242;28;20558;-85
2022/07/14 08:51:46;;;;;;;0.32;0.32;;;;;;;21.30;48.40;101349.44;5127512;28;20229;-86
2022/07/14 08:54:16;;;;;;;0.20;0.20;;;;;;;21.28;48.77;101354.00;5137922;28;20042;-85
2022/07/14 08:56:47;;;;;;;0.20;0.20;;;;;;;21.28;46.79;101346.84;5130737;28;20069;-86
2022/07/14 08:59:18;;;;;;;1.63;1.10;;;;;;;21.31;47.95;101352.00;5146838;28;20046;-86
2022/07/14 09:01:53;;;;;;;3.72;1.38;;;;;;;21.38;46.73;101355.97;5140391;28;20041;-84
2022/07/14 09:04:24;;;;;;;0.45;0.45;;;;;;;21.42;45.51;101358.47;5156763;28;20080;-85
2022/07/14 09:06:55;;;;;;;0.98;0.90;;;;;;;21.46;45.54;101358.19;5131134;28;20053;-85
2022/07/14 09:09:31;;;;;;;0.85;0.85;;;;;;;21.42;46.75;101355.81;5134428;28;20065;-85
2022/07/14 09:12:07;;;;;;;0.40;0.40;;;;;;;21.36;45.28;101357.88;5138456;28;20121;-85
2022/07/14 09:18:01;;;;;;;4.40;0.50;;;;;;;21.49;46.31;101349.97;5156163;28;20176;-87
2022/07/14 09:20:33;;;;;;;0.68;0.65;;;;;;;21.57;44.49;101357.50;5160894;28;20061;-84
2022/07/14 09:23:04;;;;;;;0.30;0.30;;;;;;;21.55;45.21;101356.72;5159820;28;20054;-85
2022/07/14 09:25:35;;;;;;;0.43;0.43;;;;;;;21.54;44.40;101349.69;5129905;28;20058;-85
2022/07/14 09:28:09;;;;;;;0.70;0.70;;;;;;;21.52;44.16;101347.13;5162811;28;20038;-85
2022/07/14 09:30:42;;;;;;;0.20;0.20;;;;;;;21.51;42.80;101356.06;5155149;28;20046;-85
2022/07/14 09:33:17;;;;;;;0.65;0.65;;;;;;;21.62;45.54;101351.91;5148318;28;20038;-86
2022/07/14 09:35:47;;;;;;;3.40;1.65;;;;;;;21.58;44.85;101353.03;5125687;28;20043;-86
2022/07/14 09:38:20;;;;;;;0.30;0.30;;;;;;;21.64;44.62;101356.19;5151458;28;20044;-87
2022/07/14 09:40:51;;;;;;;0.75;0.75;;;;;;;21.62;44.40;101354.56;5133358;28;20539;-86
2022/07/14 09:43:25;;;;;;;3.28;1.15;;;;;;;21.69;44.84;101356.72;5140273;28;20121;-86
2022/07/14 09:45:58;;;;;;;0.20;0.20;;;;;;;21.73;44.94;101357.44;5178974;28;20505;-87
2022/07/14 09:48:29;;;;;;;0.20;0.20;;;;;;;21.80;44.99;101352.53;5171911;28;20042;-86
2022/07/14 09:51:02;;;;;;;0.30;0.30;;;;;;;21.84;44.96;101344.22;5151053;28;20030;-86
2022/07/14 09:53:36;;;;;;;0.40;0.40;;;;;;;21.85;44.27;101337.91;5180534;28;20129;-86
2022/07/14 09:56:08;;;;;;;0.15;0.15;;;;;;;21.89;44.53;101348.41;5146812;28;20030;-86
2022/07/14 09:58:40;;;;;;;0.60;0.60;;;;;;;21.91;44.55;101342.00;5153438;28;20042;-86
2022/07/14 10:01:15;;;;;;;0.30;0.30;;;;;;;21.99;44.34;101342.38;5138528;28;20035;-86
2022/07/14 10:03:48;;;;;;;0.20;0.20;;;;;;;22.15;43.43;101352.03;5145952;28;20046;-84
2022/07/14 10:06:21;;;;;;;0.38;0.38;;;;;;;22.17;42.50;101342.09;5157388;28;20049;-86
2022/07/14 10:08:57;;;;;;;;;;;;;;;22.21;43.54;101345.44;5155540;28;20064;-86
2022/07/14 10:11:29;;;;;;;1.45;0.85;;;;;;;22.25;42.01;101355.81;5168920;28;19921;-86
2022/07/14 10:14:00;;;;;;;0.20;0.20;;;;;;;22.25;43.06;101342.47;5159306;28;20045;-85
2022/07/14 10:16:36;;;;;;;1.48;0.93;;;;;;;22.27;42.26;101348.53;5158566;28;20041;-86
2022/07/14 10:19:07;;;;;;;0.40;0.40;;;;;;;22.26;42.39;101360.22;5159878;28;20058;-85
2022/07/14 10:21:39;;;;;;;0.20;0.20;;;;;;;22.22;42.27;101358.69;5149191;28;20127;-84
2022/07/14 10:24:09;;;;;;;0.20;0.20;;;;;;;22.23;40.30;101343.53;5163719;28;20058;-85
2022/07/14 10:26:41;;;;;;;0.30;0.30;;;;;;;22.29;41.52;101343.09;5167197;28;20068;-84
2022/07/14 10:29:13;;;;;;;0.20;0.20;;;;;;;22.35;41.98;101336.50;5164475;28;20599;-85
2022/07/14 10:31:47;;;;;;;0.32;0.32;;;;;;;22.32;40.47;101337.53;5182661;28;20034;-84
2022/07/14 10:34:18;;;;;;;0.50;0.50;;;;;;;22.36;41.24;101348.88;5168387;28;20035;-84
2022/07/14 10:37:16;;;;;;;0.70;0.70;;;;;;;22.38;41.65;101342.50;5179343;28;20656;-85
2022/07/14 10:40:10;;;;;;;0.20;0.20;;;;;;;22.41;41.10;101349.47;5154268;28;20030;-84
2022/07/14 10:43:06;;;;;;;0.70;0.70;;;;;;;22.47;42.23;101349.06;5184106;28;20062;-84
2022/07/14 10:46:09;;;;;;;0.30;0.30;;;;;;;22.51;40.58;101352.38;5160944;28;20038;-86
2022/07/14 10:48:48;;;;;;;0.20;0.20;;;;;;;22.51;40.18;101347.91;5139603;28;20097;-85
2022/07/14 10:51:26;;;;;;;2.05;0.95;;;;;;;22.59;40.33;101340.22;5138488;28;20561;-84
2022/07/14 10:54:22;;;;;;;0.30;0.30;;;;;;;22.68;40.94;101338.72;5133311;28;20130;-84
2022/07/14 10:57:09;;;;;;;0.20;0.20;;;;;;;22.64;41.07;101323.84;5118331;28;20062;-84
2022/07/14 10:59:41;;;;;;;0.20;0.20;;;;;;;22.66;38.80;101329.94;5148649;28;20042;-84
2022/07/14 11:02:12;;;;;;;0.40;0.40;;;;;;;22.61;39.09;101327.56;5133688;28;20030;-85
2022/07/14 11:07:34;;;;;;;0.20;0.20;;;;;;;22.77;38.59;101323.84;5167123;28;20034;-84
2022/07/14 11:10:30;;;;;;;0.30;0.30;;;;;;;22.84;39.65;101333.19;5120720;28;20047;-84
2022/07/14 11:13:07;;;;;;;0.57;0.57;;;;;;;22.81;39.35;101322.66;5150389;28;20064;-84
2022/07/14 11:15:42;;;;;;;0.52;0.52;;;;;;;22.86;39.55;101314.31;5159968;28;20813;-84
2022/07/14 11:18:21;;;;;;;0.40;0.40;;;;;;;22.92;39.13;101314.75;5157301;28;20039;-84
2022/07/14 11:21:00;;;;;;;0.45;0.45;;;;;;;22.93;39.24;101323.63;5165530;28;20064;-85
2022/07/14 11:23:34;;;;;;;1.17;0.90;;;;;;;22.99;39.49;101319.69;5141906;28;20076;-84
2022/07/14 11:26:07;;;;;;;2.20;0.80;;;;;;;23.01;39.68;101334.66;5158964;28;20045;-84
2022/07/14 11:28:48;;;;;;;0.35;0.35;;;;;;;23.01;38.57;101320.44;5155984;28;20041;-84
2022/07/14 11:31:21;;;;;;;1.27;0.88;;;;;;;23.09;38.40;101328.78;5164780;28;20041;-85
2022/07/14 11:37:03;;;;;;;0.63;0.63;;;;;;;23.34;37.36;101337.78;5141735;28;20251;-84
2022/07/14 11:39:35;;;;;;;0.43;0.43;;;;;;;23.33;38.03;101338.72;5141431;28;20035;-84
2022/07/14 11:42:12;;;;;;;0.22;0.22;;;;;;;23.39;38.11;101346.31;5144507;28;20081;-84
2022/07/14 11:44:49;;;;;;;0.45;0.45;;;;;;;23.44;38.69;101336.13;5158802;28;20057;-83
2022/07/14 11:47:29;;;;;;;0.20;0.20;;;;;;;23.47;38.30;101335.06;5141551;28;20133;-84
2022/07/14 11:50:07;;;;;;;0.20;0.20;;;;;;;23.57;38.05;101341.44;5159887;28;20038;-84
2022/07/14 11:52:41;;;;;;;0.25;0.25;;;;;;;23.64;37.10;101350.75;5130679;28;20175;-86
2022/07/14 11:55:15;;;;;;;0.30;0.30;;;;;;;23.73;37.56;101336.69;5130234;28;20042;-86
2022/07/14 11:57:51;;;;;;;0.82;0.32;;;;;;;23.74;37.10;101324.16;5176277;28;20033;-87
2022/07/14 12:00:22;;;;;;;0.20;0.20;;;;;;;23.82;36.05;101319.09;5151632;28;20039;-84
2022/07/14 12:02:55;;;;;;;0.30;0.30;;;;;;;23.96;37.89;101319.91;5141311;28;20037;-85
2022/07/14 12:05:30;;;;;;;0.75;0.75;;;;;;;24.05;36.87;101324.59;5158633;28;20023;-86
2022/07/14 12:08:01;;;;;;;0.60;0.60;;;;;;;24.11;37.67;101318.75;5166610;28;20030;-86
2022/07/14 12:10:41;;;;;;;0.73;0.38;;;;;;;24.12;36.73;101325.00;5148427;28;20042;-85
2022/07/14 12:13:12;;;;;;;0.43;0.43;;;;;;;24.15;37.16;101333.66;5191311;28;20065;-85
2022/07/14 12:15:43;;;;;;;0.68;0.60;;;;;;;24.19;37.09;101326.25;5192650;28;20077;-85
2022/07/14 12:18:14;;;;;;;0.73;0.73;;;;;;;24.32;36.95;101318.97;5153691;28;20038;-85